sensor_id;sensor_type;location;lat;lon;timestamp;pressure;altitude;pressure_sealevel;temperature;humidity
39699;BME280;25372;50.582;12.250;2023-08-31T00:09:58;98901.03;;;13.74;86.32
39699;BME280;25372;50.582;12.250;2023-08-31T00:20:20;98919.22;;;14.63;76.79
39699;BME280;25372;50.582;12.250;2023-08-31T00:30:42;98935.25;;;14.51;75.26
39699;BME280;25372;50.582;12.250;2023-08-31T00:41:05;98952.38;;;14.00;77.19
39699;BME280;25372;50.582;12.250;2023-08-31T00:51:26;98934.63;;;13.62;80.87
39699;BME280;25372;50.582;12.250;2023-08-31T01:01:51;98935.53;;;13.22;82.97
39699;BME280;25372;50.582;12.250;2023-08-31T01:12:20;98936.66;;;13.19;82.22
39699;BME280;25372;50.582;12.250;2023-08-31T01:22:48;98925.94;;;13.01;83.85
39699;BME280;25372;50.582;12.250;2023-08-31T01:33:13;98924.03;;;13.23;83.69
39699;BME280;25372;50.582;12.250;2023-08-31T01:43:38;98945.00;;;13.34;84.29
39699;BME280;25372;50.582;12.250;2023-08-31T01:54:03;98934.75;;;13.51;80.84
39699;BME280;25372;50.582;12.250;2023-08-31T02:04:23;98935.44;;;13.53;80.39
39699;BME280;25372;50.582;12.250;2023-08-31T02:14:46;98964.34;;;13.45;80.35
39699;BME280;25372;50.582;12.250;2023-08-31T02:25:07;98969.25;;;13.38;82.02
39699;BME280;25372;50.582;12.250;2023-08-31T02:35:30;98992.41;;;13.24;82.46
39699;BME280;25372;50.582;12.250;2023-08-31T02:45:58;98995.88;;;13.15;85.77
39699;BME280;25372;50.582;12.250;2023-08-31T02:56:21;99006.50;;;13.04;82.99
39699;BME280;25372;50.582;12.250;2023-08-31T03:06:42;99018.41;;;12.88;85.01
39699;BME280;25372;50.582;12.250;2023-08-31T03:17:04;99003.28;;;12.59;86.68
39699;BME280;25372;50.582;12.250;2023-08-31T03:27:25;99014.47;;;12.51;86.36
39699;BME280;25372;50.582;12.250;2023-08-31T03:37:48;99038.56;;;12.68;85.01
39699;BME280;25372;50.582;12.250;2023-08-31T03:48:09;99033.91;;;12.60;85.58
39699;BME280;25372;50.582;12.250;2023-08-31T03:58:31;99043.81;;;12.47;87.62
39699;BME280;25372;50.582;12.250;2023-08-31T04:08:52;99028.09;;;12.14;86.26
39699;BME280;25372;50.582;12.250;2023-08-31T04:19:15;99035.34;;;11.89;91.91
39699;BME280;25372;50.582;12.250;2023-08-31T04:29:35;99056.00;;;12.05;89.87
39699;BME280;25372;50.582;12.250;2023-08-31T04:39:57;99057.69;;;12.49;85.13
39699;BME280;25372;50.582;12.250;2023-08-31T04:50:18;99074.84;;;12.64;84.02
39699;BME280;25372;50.582;12.250;2023-08-31T05:00:40;99092.31;;;12.65;84.14
39699;BME280;25372;50.582;12.250;2023-08-31T05:11:01;99118.91;;;12.83;84.09
39699;BME280;25372;50.582;12.250;2023-08-31T05:21:24;99132.59;;;12.98;83.49
39699;BME280;25372;50.582;12.250;2023-08-31T05:31:44;99140.44;;;13.20;81.88
39699;BME280;25372;50.582;12.250;2023-08-31T05:42:07;99147.13;;;13.55;80.05
39699;BME280;25372;50.582;12.250;2023-08-31T05:52:27;99150.50;;;13.67;79.48
39699;BME280;25372;50.582;12.250;2023-08-31T06:02:50;99133.63;;;13.89;77.32
39699;BME280;25372;50.582;12.250;2023-08-31T06:13:10;99145.25;;;13.77;77.55
39699;BME280;25372;50.582;12.250;2023-08-31T06:23:32;99151.31;;;14.18;76.38
39699;BME280;25372;50.582;12.250;2023-08-31T06:33:53;99164.78;;;14.64;74.35
39699;BME280;25372;50.582;12.250;2023-08-31T06:44:15;99179.13;;;14.52;77.21
39699;BME280;25372;50.582;12.250;2023-08-31T06:54:37;99190.06;;;15.16;74.19
39699;BME280;25372;50.582;12.250;2023-08-31T07:04:59;99177.34;;;15.68;71.31
39699;BME280;25372;50.582;12.250;2023-08-31T07:15:20;99197.41;;;15.22;73.73
39699;BME280;25372;50.582;12.250;2023-08-31T07:25:41;99209.31;;;14.79;74.19
39699;BME280;25372;50.582;12.250;2023-08-31T07:36:04;99220.69;;;14.50;77.15
39699;BME280;25372;50.582;12.250;2023-08-31T07:46:27;99237.97;;;14.84;74.15
39699;BME280;25372;50.582;12.250;2023-08-31T07:56:48;99243.25;;;15.03;71.42
39699;BME280;25372;50.582;12.250;2023-08-31T08:07:10;99249.88;;;15.27;71.61
39699;BME280;25372;50.582;12.250;2023-08-31T08:17:31;99251.06;;;15.43;68.66
39699;BME280;25372;50.582;12.250;2023-08-31T08:27:53;99264.50;;;15.79;65.39
39699;BME280;25372;50.582;12.250;2023-08-31T08:38:14;99251.25;;;17.26;62.24
39699;BME280;25372;50.582;12.250;2023-08-31T08:48:36;99264.09;;;18.51;56.61
39699;BME280;25372;50.582;12.250;2023-08-31T08:58:58;99266.00;;;19.09;57.10
39699;BME280;25372;50.582;12.250;2023-08-31T09:09:20;99251.38;;;20.26;49.39
39699;BME280;25372;50.582;12.250;2023-08-31T09:19:42;99272.16;;;19.26;53.18
39699;BME280;25372;50.582;12.250;2023-08-31T09:30:07;99264.63;;;17.69;57.11
39699;BME280;25372;50.582;12.250;2023-08-31T09:40:28;99282.91;;;17.80;57.08
39699;BME280;25372;50.582;12.250;2023-08-31T09:50:51;99299.53;;;16.93;58.16
39699;BME280;25372;50.582;12.250;2023-08-31T10:01:13;99290.66;;;17.21;59.32
39699;BME280;25372;50.582;12.250;2023-08-31T10:11:38;99286.00;;;18.37;57.64
39699;BME280;25372;50.582;12.250;2023-08-31T10:21:59;99298.47;;;18.53;54.61
39699;BME280;25372;50.582;12.250;2023-08-31T10:32:22;99285.34;;;18.43;55.52
39699;BME280;25372;50.582;12.250;2023-08-31T10:42:44;99286.44;;;17.89;53.87
39699;BME280;25372;50.582;12.250;2023-08-31T10:53:09;99267.19;;;19.06;52.66
39699;BME280;25372;50.582;12.250;2023-08-31T11:03:31;99282.94;;;18.99;53.60
39699;BME280;25372;50.582;12.250;2023-08-31T11:13:57;99332.09;;;16.67;59.50
39699;BME280;25372;50.582;12.250;2023-08-31T11:24:18;99356.06;;;14.93;66.41
39699;BME280;25372;50.582;12.250;2023-08-31T11:34:43;99359.56;;;13.26;80.70
39699;BME280;25372;50.582;12.250;2023-08-31T11:45:05;99376.66;;;13.11;84.55
39699;BME280;25372;50.582;12.250;2023-08-31T11:55:28;99353.22;;;13.62;88.31
39699;BME280;25372;50.582;12.250;2023-08-31T12:05:51;99343.69;;;15.52;79.07
39699;BME280;25372;50.582;12.250;2023-08-31T12:16:15;99320.88;;;15.22;74.76
39699;BME280;25372;50.582;12.250;2023-08-31T12:26:37;99319.84;;;16.66;75.53
39699;BME280;25372;50.582;12.250;2023-08-31T12:36:59;99309.41;;;17.01;69.35
39699;BME280;25372;50.582;12.250;2023-08-31T12:47:22;99308.00;;;16.60;64.91
39699;BME280;25372;50.582;12.250;2023-08-31T12:57:45;99332.22;;;16.47;64.81
39699;BME280;25372;50.582;12.250;2023-08-31T13:08:06;99337.06;;;15.76;70.67
39699;BME280;25372;50.582;12.250;2023-08-31T13:18:28;99312.00;;;17.11;65.96
39699;BME280;25372;50.582;12.250;2023-08-31T13:28:49;99313.34;;;18.21;62.49
39699;BME280;25372;50.582;12.250;2023-08-31T13:39:11;99301.97;;;18.53;60.28
39699;BME280;25372;50.582;12.250;2023-08-31T13:49:33;99297.34;;;18.55;56.69
39699;BME280;25372;50.582;12.250;2023-08-31T13:59:55;99296.81;;;17.74;59.69
39699;BME280;25372;50.582;12.250;2023-08-31T14:10:16;99303.91;;;17.39;61.66
39699;BME280;25372;50.582;12.250;2023-08-31T14:20:38;99326.25;;;17.54;61.42
39699;BME280;25372;50.582;12.250;2023-08-31T14:31:03;99319.31;;;17.88;59.39
39699;BME280;25372;50.582;12.250;2023-08-31T14:41:26;99316.38;;;20.17;56.22
39699;BME280;25372;50.582;12.250;2023-08-31T14:51:46;99308.09;;;20.98;49.14
39699;BME280;25372;50.582;12.250;2023-08-31T15:02:09;99310.56;;;21.61;47.63
39699;BME280;25372;50.582;12.250;2023-08-31T15:12:29;99310.06;;;20.73;50.73
39699;BME280;25372;50.582;12.250;2023-08-31T15:22:52;99303.56;;;19.06;53.61
39699;BME280;25372;50.582;12.250;2023-08-31T15:33:13;99321.84;;;17.98;57.19
39699;BME280;25372;50.582;12.250;2023-08-31T15:43:36;99324.63;;;17.17;63.20
39699;BME280;25372;50.582;12.250;2023-08-31T15:53:57;99355.81;;;18.12;57.67
39699;BME280;25372;50.582;12.250;2023-08-31T16:04:24;99353.72;;;16.44;63.20
39699;BME280;25372;50.582;12.250;2023-08-31T16:14:46;99351.69;;;16.56;62.73
39699;BME280;25372;50.582;12.250;2023-08-31T16:25:09;99356.72;;;17.50;59.17
39699;BME280;25372;50.582;12.250;2023-08-31T16:35:31;99365.28;;;16.89;62.47
39699;BME280;25372;50.582;12.250;2023-08-31T16:45:53;99380.22;;;16.44;62.38
39699;BME280;25372;50.582;12.250;2023-08-31T16:56:15;99391.25;;;16.02;65.52
39699;BME280;25372;50.582;12.250;2023-08-31T17:06:37;99460.75;;;13.91;83.65
39699;BME280;25372;50.582;12.250;2023-08-31T17:16:58;99390.59;;;13.01;90.49
39699;BME280;25372;50.582;12.250;2023-08-31T17:27:22;99404.91;;;12.65;95.27
39699;BME280;25372;50.582;12.250;2023-08-31T17:37:44;99411.28;;;12.28;96.18
39699;BME280;25372;50.582;12.250;2023-08-31T17:48:06;99422.41;;;12.20;97.14
39699;BME280;25372;50.582;12.250;2023-08-31T17:58:27;99427.59;;;11.97;97.81
39699;BME280;25372;50.582;12.250;2023-08-31T18:08:49;99446.97;;;11.60;99.03
39699;BME280;25372;50.582;12.250;2023-08-31T18:19:10;99464.78;;;11.32;100.00
39699;BME280;25372;50.582;12.250;2023-08-31T18:29:32;99468.25;;;11.09;100.00
39699;BME280;25372;50.582;12.250;2023-08-31T18:39:53;99468.88;;;11.12;100.00
39699;BME280;25372;50.582;12.250;2023-08-31T18:50:16;99464.47;;;11.00;100.00
39699;BME280;25372;50.582;12.250;2023-08-31T19:00:40;99471.94;;;10.56;100.00
39699;BME280;25372;50.582;12.250;2023-08-31T19:11:07;99468.75;;;10.63;100.00
39699;BME280;25372;50.582;12.250;2023-08-31T19:21:29;99463.41;;;10.65;100.00
39699;BME280;25372;50.582;12.250;2023-08-31T19:31:51;99476.13;;;10.58;100.00
39699;BME280;25372;50.582;12.250;2023-08-31T19:42:13;99486.28;;;10.76;100.00
39699;BME280;25372;50.582;12.250;2023-08-31T19:52:36;99492.28;;;11.15;97.46
39699;BME280;25372;50.582;12.250;2023-08-31T20:02:57;99548.25;;;11.42;90.26
39699;BME280;25372;50.582;12.250;2023-08-31T20:13:19;99544.63;;;11.80;90.19
39699;BME280;25372;50.582;12.250;2023-08-31T20:23:40;99568.09;;;11.46;94.31
39699;BME280;25372;50.582;12.250;2023-08-31T20:34:03;99581.59;;;11.41;98.36
39699;BME280;25372;50.582;12.250;2023-08-31T20:44:24;99585.63;;;11.34;100.00
39699;BME280;25372;50.582;12.250;2023-08-31T20:54:49;99639.41;;;11.54;91.21
39699;BME280;25372;50.582;12.250;2023-08-31T21:05:14;99626.16;;;11.80;88.95
39699;BME280;25372;50.582;12.250;2023-08-31T21:15:36;99638.44;;;11.93;90.09
39699;BME280;25372;50.582;12.250;2023-08-31T21:25:58;99640.66;;;11.86;88.19
39699;BME280;25372;50.582;12.250;2023-08-31T21:36:21;99654.13;;;11.94;93.05
39699;BME280;25372;50.582;12.250;2023-08-31T21:46:42;99614.56;;;11.96;94.93
39699;BME280;25372;50.582;12.250;2023-08-31T21:57:04;99611.28;;;11.92;92.88
39699;BME280;25372;50.582;12.250;2023-08-31T22:07:25;99627.84;;;11.81;92.68
39699;BME280;25372;50.582;12.250;2023-08-31T22:17:48;99631.72;;;11.88;91.69
39699;BME280;25372;50.582;12.250;2023-08-31T22:28:10;99617.22;;;11.83;90.25
39699;BME280;25372;50.582;12.250;2023-08-31T22:38:32;99623.47;;;11.69;89.61
39699;BME280;25372;50.582;12.250;2023-08-31T22:48:53;99609.16;;;11.73;90.24
39699;BME280;25372;50.582;12.250;2023-08-31T22:59:15;99598.78;;;11.58;92.35
39699;BME280;25372;50.582;12.250;2023-08-31T23:09:36;99614.53;;;11.21;94.52
39699;BME280;25372;50.582;12.250;2023-08-31T23:19:59;99624.22;;;10.82;95.90
39699;BME280;25372;50.582;12.250;2023-08-31T23:30:20;99623.69;;;10.63;95.55
39699;BME280;25372;50.582;12.250;2023-08-31T23:40:42;99625.88;;;10.57;99.08
39699;BME280;25372;50.582;12.250;2023-08-31T23:51:03;99634.50;;;10.31;100.00
